Time;durP1;ratioP1;P1;durP2;ratioP2;P2;SDS_P1;SDS_P2;PMS_P1;PMS_P2;Temp;Humidity;BMP_temperature;BMP_pressure;BME280_temperature;BME280_humidity;BME280_pressure;Samples;Min_cycle;Max_cycle;Signal;HPM_P1;HPM_P2
2022/09/28 00:01:16;;;;;;;9.00;6.10;;;8.00;99.90;;;;;;5023137;28;20046;-76
2022/09/28 00:03:43;;;;;;;8.38;5.60;;;8.00;99.90;;;;;;5055078;28;20041;-75
2022/09/28 00:06:11;;;;;;;16.00;10.52;;;8.00;99.90;;;;;;5016612;28;20040;-75
2022/09/28 00:08:37;;;;;;;13.75;10.43;;;8.00;99.90;;;;;;5032201;28;20056;-75
2022/09/28 00:11:06;;;;;;;8.30;6.43;;;8.00;99.90;;;;;;5034682;28;20040;-75
2022/09/28 00:13:32;;;;;;;10.48;6.75;;;8.00;99.90;;;;;;5035126;28;20045;-76
2022/09/28 00:16:07;;;;;;;13.45;8.70;;;7.90;99.90;;;;;;5017016;28;20060;-76
2022/09/28 00:18:34;;;;;;;11.48;7.80;;;8.00;99.90;;;;;;5035971;28;20481;-75
2022/09/28 00:21:07;;;;;;;12.27;9.05;;;7.90;99.90;;;;;;5017605;28;20380;-75
2022/09/28 00:24:11;;;;;;;11.40;8.05;;;8.00;99.90;;;;;;5034860;28;20061;-76
2022/09/28 00:26:20;;;;;;;16.48;9.45;;;8.00;99.90;;;;;;5051587;28;20052;-76
2022/09/28 00:28:45;;;;;;;11.63;9.00;;;8.10;99.90;;;;;;5034786;28;20380;-76
2022/09/28 00:31:11;;;;;;;14.13;8.57;;;8.10;99.90;;;;;;5024901;28;20040;-76
2022/09/28 00:33:39;;;;;;;12.90;9.65;;;8.10;99.90;;;;;;5042967;28;20068;-76
2022/09/28 00:36:05;;;;;;;13.20;9.48;;;8.10;99.90;;;;;;5033830;28;20472;-76
2022/09/28 00:38:30;;;;;;;15.27;11.52;;;8.10;99.90;;;;;;5013791;28;20051;-76
2022/09/28 00:40:56;;;;;;;15.43;10.95;;;8.20;99.90;;;;;;5034202;28;20060;-75
2022/09/28 00:43:23;;;;;;;18.15;12.35;;;8.10;99.90;;;;;;5034287;28;20412;-76
2022/09/28 00:46:14;;;;;;;16.08;12.05;;;8.20;99.90;;;;;;5017187;28;20476;-76
2022/09/28 00:48:50;;;;;;;19.02;14.10;;;8.10;99.90;;;;;;5037290;28;20395;-76
2022/09/28 00:51:16;;;;;;;20.25;14.75;;;8.10;99.90;;;;;;5033524;28;20095;-76
2022/09/28 00:53:43;;;;;;;21.58;15.25;;;8.10;99.90;;;;;;5005748;28;20048;-75
2022/09/28 00:56:17;;;;;;;13.45;9.43;;;8.10;99.90;;;;;;5020291;28;20040;-76
2022/09/28 00:58:47;;;;;;;14.35;10.27;;;8.20;99.90;;;;;;5031384;28;20053;-76
2022/09/28 01:01:13;;;;;;;16.33;11.95;;;8.10;99.90;;;;;;5014844;28;20073;-76
2022/09/28 01:03:47;;;;;;;12.07;9.40;;;8.10;99.90;;;;;;5033705;28;20087;-75
2022/09/28 01:06:34;;;;;;;14.13;9.95;;;8.20;99.90;;;;;;5031605;28;20119;-76
2022/09/28 01:09:04;;;;;;;21.75;15.18;;;8.10;99.90;;;;;;5033205;28;20376;-76
2022/09/28 01:11:37;;;;;;;15.48;12.00;;;8.20;99.90;;;;;;5015213;28;20809;-75
2022/09/28 01:14:06;;;;;;;15.10;11.63;;;8.20;99.90;;;;;;5039135;28;20048;-76
2022/09/28 01:16:59;;;;;;;16.65;12.73;;;8.10;99.90;;;;;;5031283;28;20083;-76
2022/09/28 01:20:04;;;;;;;18.80;14.50;;;8.20;99.90;;;;;;5017655;28;20041;-76
2022/09/28 01:22:56;;;;;;;18.23;14.77;;;8.10;99.90;;;;;;5031286;28;20087;-76
2022/09/28 01:25:51;;;;;;;19.23;14.00;;;8.10;99.90;;;;;;5045959;28;20055;-76
2022/09/28 01:28:19;;;;;;;19.38;14.05;;;8.10;99.90;;;;;;5032571;28;20041;-76
2022/09/28 01:30:57;;;;;;;15.38;12.13;;;8.10;99.90;;;;;;5021257;28;20044;-76
2022/09/28 01:33:27;;;;;;;19.63;13.93;;;8.10;99.90;;;;;;5031839;28;20056;-76
2022/09/28 01:36:03;;;;;;;17.83;14.40;;;8.10;99.90;;;;;;5032302;28;20069;-76
2022/09/28 01:38:36;;;;;;;13.85;11.07;;;8.00;99.90;;;;;;5026513;28;20072;-76
2022/09/28 01:41:02;;;;;;;14.75;11.75;;;8.00;99.90;;;;;;5017098;28;20049;-75
2022/09/28 01:43:31;;;;;;;12.85;9.65;;;8.10;99.90;;;;;;5031917;28;20092;-75
2022/09/28 01:46:09;;;;;;;13.25;9.75;;;8.10;99.90;;;;;;5031733;28;20049;-75
2022/09/28 01:48:44;;;;;;;15.10;12.43;;;8.00;99.90;;;;;;5033024;28;20123;-75
2022/09/28 01:51:32;;;;;;;14.80;11.13;;;8.00;99.90;;;;;;5015395;28;20053;-75
2022/09/28 01:54:05;;;;;;;17.30;13.98;;;8.00;99.90;;;;;;5049578;28;20048;-75
2022/09/28 01:56:39;;;;;;;16.20;12.93;;;8.00;99.90;;;;;;5033257;28;20049;-76
2022/09/28 01:59:14;;;;;;;18.42;14.77;;;8.30;99.90;;;;;;5057173;28;20037;-75
2022/09/28 02:01:44;;;;;;;18.05;13.60;;;8.00;99.90;;;;;;5014332;28;20708;-75
2022/09/28 02:04:17;;;;;;;16.35;13.38;;;8.60;99.90;;;;;;5029745;28;20045;-76
2022/09/28 02:06:52;;;;;;;19.73;14.40;;;7.90;99.90;;;;;;5016377;28;20045;-74
2022/09/28 02:09:23;;;;;;;19.33;15.20;;;7.90;99.90;;;;;;5028757;28;20532;-75
2022/09/28 02:11:58;;;;;;;22.25;15.55;;;7.80;99.90;;;;;;5015891;28;20052;-75
2022/09/28 02:14:24;;;;;;;47.95;23.67;;;7.80;99.90;;;;;;5031188;28;20142;-74
2022/09/28 02:16:53;;;;;;;51.53;25.92;;;7.80;99.90;;;;;;5015662;28;20087;-75
2022/09/28 02:19:25;;;;;;;32.80;21.25;;;7.70;99.90;;;;;;5031864;28;20041;-75
2022/09/28 02:21:57;;;;;;;;;;;7.70;99.90;;;;;;5031253;28;20080;-76
2022/09/28 02:24:51;;;;;;;19.70;15.07;;;7.60;99.90;;;;;;5031751;28;20280;-75
2022/09/28 02:27:34;;;;;;;14.63;11.98;;;7.50;99.90;;;;;;5023927;28;20041;-76
2022/09/28 02:30:01;;;;;;;13.23;10.85;;;7.50;99.90;;;;;;5049913;28;20070;-75
2022/09/28 02:32:29;;;;;;;13.50;10.27;;;7.50;99.90;;;;;;5031816;28;20044;-75
2022/09/28 02:34:55;;;;;;;10.85;8.45;;;7.50;99.90;;;;;;5019387;28;20041;-75
2022/09/28 02:37:21;;;;;;;12.18;9.02;;;7.50;99.90;;;;;;5010972;28;20037;-76
2022/09/28 02:39:47;;;;;;;14.02;10.65;;;7.40;99.90;;;;;;5031632;28;20037;-76
2022/09/28 02:42:18;;;;;;;11.18;9.07;;;7.40;99.90;;;;;;5019798;28;20037;-75
2022/09/28 02:45:12;;;;;;;11.63;9.33;;;7.40;99.90;;;;;;5043780;28;20465;-75
2022/09/28 02:48:06;;;;;;;12.05;9.02;;;7.40;99.90;;;;;;5031356;28;20485;-75
2022/09/28 02:50:58;;;;;;;12.68;9.70;;;7.40;99.90;;;;;;5031694;28;20040;-75
2022/09/28 02:53:36;;;;;;;14.38;11.45;;;7.30;99.90;;;;;;5045394;28;20041;-75
2022/09/28 02:56:28;;;;;;;28.90;11.68;;;7.30;99.90;;;;;;5031680;28;20067;-75
2022/09/28 02:59:12;;;;;;;11.80;9.57;;;7.30;99.90;;;;;;5040737;28;20164;-76
2022/09/28 03:01:57;;;;;;;15.23;11.07;;;7.30;99.90;;;;;;5031443;28;20053;-76
2022/09/28 03:05:02;;;;;;;23.83;10.57;;;7.70;99.90;;;;;;5015564;28;20167;-76
2022/09/28 03:07:34;;;;;;;11.38;9.07;;;7.20;99.90;;;;;;4995836;28;20401;-76
2022/09/28 03:10:04;;;;;;;10.80;8.00;;;7.10;99.90;;;;;;5032883;28;20124;-75
2022/09/28 03:12:32;;;;;;;9.77;7.55;;;7.10;99.90;;;;;;5031414;28;20428;-75
2022/09/28 03:15:32;;;;;;;9.50;7.50;;;7.20;99.90;;;;;;5017999;28;20088;-75
2022/09/28 03:17:59;;;;;;;11.38;7.70;;;7.20;99.90;;;;;;5028478;28;20060;-75
2022/09/28 03:20:26;;;;;;;14.05;9.35;;;7.20;99.90;;;;;;5035011;28;20041;-75
2022/09/28 03:22:51;;;;;;;11.45;8.02;;;7.40;99.90;;;;;;5033820;28;20433;-75
2022/09/28 03:25:17;;;;;;;10.60;8.27;;;7.10;99.90;;;;;;5035305;28;20124;-75
2022/09/28 03:27:43;;;;;;;10.90;7.90;;;7.10;99.90;;;;;;5035274;28;20102;-75
2022/09/28 03:30:10;;;;;;;10.63;7.60;;;7.10;99.90;;;;;;5020603;28;20037;-75
2022/09/28 03:32:36;;;;;;;9.40;7.28;;;7.20;99.90;;;;;;5018742;28;20041;-75
2022/09/28 03:35:03;;;;;;;11.50;7.88;;;7.10;99.90;;;;;;5035081;28;20083;-75
2022/09/28 03:37:28;;;;;;;10.55;7.65;;;7.10;99.90;;;;;;5034617;28;20037;-77
2022/09/28 03:39:54;;;;;;;11.85;7.50;;;7.20;99.90;;;;;;5052895;28;20139;-75
2022/09/28 03:42:20;;;;;;;9.57;7.50;;;7.20;99.90;;;;;;5005345;28;20052;-75
2022/09/28 03:44:45;;;;;;;10.25;7.25;;;7.20;99.90;;;;;;5035068;28;20075;-75
2022/09/28 03:47:11;;;;;;;10.73;7.57;;;7.10;99.90;;;;;;5007991;28;20049;-76
2022/09/28 03:49:37;;;;;;;10.07;8.45;;;7.10;99.90;;;;;;5052181;28;20045;-77
2022/09/28 03:52:03;;;;;;;9.65;7.22;;;7.10;99.90;;;;;;5052680;28;20430;-75
2022/09/28 03:54:29;;;;;;;9.30;7.38;;;7.10;99.90;;;;;;5033911;28;20052;-75
2022/09/28 03:56:55;;;;;;;8.52;7.10;;;7.00;99.90;;;;;;5035209;28;20044;-76
2022/09/28 03:59:20;;;;;;;9.10;7.25;;;7.10;99.90;;;;;;5034068;28;20037;-77
2022/09/28 04:01:50;;;;;;;9.48;7.00;;;7.00;99.90;;;;;;5040523;28;20049;-77
2022/09/28 04:04:16;;;;;;;8.82;7.22;;;7.00;99.90;;;;;;5034927;28;20052;-75
2022/09/28 04:06:42;;;;;;;10.43;7.28;;;7.40;99.90;;;;;;5034246;28;20057;-75
2022/09/28 04:09:08;;;;;;;9.50;7.53;;;7.00;99.90;;;;;;5051464;28;20089;-75
2022/09/28 04:11:34;;;;;;;10.80;7.72;;;6.90;99.90;;;;;;5050980;28;20037;-75
2022/09/28 04:14:00;;;;;;;10.65;7.45;;;7.60;99.90;;;;;;5034636;28;20068;-75
2022/09/28 04:16:26;;;;;;;9.45;7.78;;;6.80;99.90;;;;;;5051451;28;20557;-76
2022/09/28 04:18:51;;;;;;;11.43;8.73;;;6.70;99.90;;;;;;5052237;28;20112;-75
2022/09/28 04:21:18;;;;;;;12.43;9.55;;;6.70;99.90;;;;;;5035502;28;20464;-75
2022/09/28 04:23:45;;;;;;;12.45;9.18;;;6.70;99.90;;;;;;5026813;28;20076;-75
2022/09/28 04:26:20;;;;;;;17.25;11.73;;;6.70;99.90;;;;;;5013073;28;20131;-75
2022/09/28 04:31:40;;;;;;;60.40;14.55;;;6.80;99.90;;;;;;5050025;28;20048;-75
2022/09/28 04:34:06;;;;;;;86.82;17.90;;;6.80;99.90;;;;;;5033936;28;20073;-75
2022/09/28 04:36:32;;;;;;;92.75;19.23;;;6.80;99.90;;;;;;5034055;28;20541;-75
2022/09/28 04:38:58;;;;;;;19.70;14.15;;;6.90;99.90;;;;;;5051889;28;20037;-74
2022/09/28 04:41:25;;;;;;;134.75;18.00;;;6.80;99.90;;;;;;5034120;28;20052;-76
2022/09/28 04:43:51;;;;;;;111.13;17.08;;;6.90;99.90;;;;;;5034400;28;20049;-74
2022/09/28 04:46:17;;;;;;;120.88;18.02;;;6.80;99.90;;;;;;5050289;28;20044;-75
2022/09/28 04:48:43;;;;;;;100.13;17.13;;;6.80;99.90;;;;;;5031112;28;20115;-74
2022/09/28 04:51:09;;;;;;;72.93;18.02;;;6.80;99.90;;;;;;5017267;28;20124;-74
2022/09/28 04:53:34;;;;;;;53.10;16.15;;;6.80;99.90;;;;;;5034590;28;20477;-74
2022/09/28 04:56:11;;;;;;;68.80;17.00;;;6.80;99.90;;;;;;5033203;28;20139;-76
2022/09/28 04:58:37;;;;;;;88.00;18.38;;;6.90;99.90;;;;;;5033690;28;20068;-74
2022/09/28 05:01:05;;;;;;;53.40;17.73;;;6.90;99.90;;;;;;5049656;28;20122;-75
2022/09/28 05:03:31;;;;;;;55.25;16.25;;;6.90;99.90;;;;;;5033547;28;20376;-76
2022/09/28 05:05:57;;;;;;;112.50;18.23;;;6.90;99.90;;;;;;5016566;28;20099;-74
2022/09/28 05:08:23;;;;;;;62.67;17.85;;;6.90;99.90;;;;;;5033411;28;20457;-74
2022/09/28 05:10:59;;;;;;;173.43;19.88;;;6.90;99.90;;;;;;5033295;28;20388;-73
2022/09/28 05:13:26;;;;;;;160.68;21.38;;;6.90;99.90;;;;;;5031494;28;20053;-73
2022/09/28 05:15:53;;;;;;;95.65;18.33;;;6.90;99.90;;;;;;5013728;28;20048;-73
2022/09/28 05:18:19;;;;;;;419.35;30.63;;;6.90;99.90;;;;;;4986309;28;20858;-73
2022/09/28 05:20:45;;;;;;;33.05;19.30;;;6.90;99.90;;;;;;5031831;28;20056;-74
2022/09/28 05:23:12;;;;;;;146.38;20.27;;;6.90;99.90;;;;;;5049521;28;20033;-73
2022/09/28 05:25:38;;;;;;;142.00;22.80;;;7.00;99.90;;;;;;5031056;28;20045;-73
2022/09/28 05:28:05;;;;;;;103.10;23.02;;;7.00;99.90;;;;;;5030120;28;20136;-73
2022/09/28 05:30:32;;;;;;;284.15;27.73;;;7.00;99.90;;;;;;5027556;28;20374;-75
2022/09/28 05:32:57;;;;;;;133.30;23.60;;;7.00;99.90;;;;;;5028906;28;20048;-72
2022/09/28 05:35:23;;;;;;;240.35;26.73;;;7.10;99.90;;;;;;5018932;28;20139;-74
2022/09/28 05:37:49;;;;;;;292.38;24.52;;;7.10;99.90;;;;;;5013588;28;20060;-75
2022/09/28 05:40:15;;;;;;;37.83;21.90;;;7.10;99.90;;;;;;5050218;28;20044;-74
2022/09/28 05:42:41;;;;;;;44.40;20.33;;;7.10;99.90;;;;;;5031847;28;20041;-74
2022/09/28 05:45:09;;;;;;;60.97;23.48;;;7.30;99.90;;;;;;5031425;28;20464;-74
2022/09/28 05:47:39;;;;;;;47.20;21.48;;;7.20;99.90;;;;;;5032378;28;20051;-74
2022/09/28 05:50:08;;;;;;;168.93;23.88;;;7.20;99.90;;;;;;5032862;28;20052;-76
2022/09/28 05:52:34;;;;;;;42.60;22.13;;;7.20;99.90;;;;;;5032810;28;20114;-76
2022/09/28 05:55:00;;;;;;;66.28;20.35;;;7.20;99.90;;;;;;5014924;28;20096;-73
2022/09/28 05:57:26;;;;;;;71.97;23.42;;;7.30;99.90;;;;;;5025160;28;20064;-74
2022/09/28 05:59:52;;;;;;;50.53;23.75;;;7.30;99.90;;;;;;5029100;28;20486;-74
2022/09/28 06:02:17;;;;;;;45.05;24.42;;;7.30;99.90;;;;;;5039413;28;20059;-74
2022/09/28 06:04:43;;;;;;;76.60;23.52;;;7.40;99.90;;;;;;5002777;28;20045;-73
2022/09/28 06:07:09;;;;;;;88.72;23.80;;;7.40;99.90;;;;;;5032589;28;20045;-74
2022/09/28 06:09:34;;;;;;;112.38;23.92;;;7.40;99.90;;;;;;5030811;28;20040;-75
2022/09/28 06:12:00;;;;;;;74.70;22.95;;;7.40;99.90;;;;;;5037528;28;20040;-74
2022/09/28 06:14:26;;;;;;;47.13;21.20;;;7.40;99.90;;;;;;5023622;28;20470;-74
2022/09/28 06:16:52;;;;;;;108.15;24.33;;;7.50;99.90;;;;;;5028671;28;20527;-75
2022/09/28 06:19:17;;;;;;;74.53;21.95;;;7.70;99.90;;;;;;5012673;28;20037;-75
2022/09/28 06:21:43;;;;;;;190.10;23.30;;;7.50;99.90;;;;;;5025223;28;20052;-74
2022/09/28 06:24:09;;;;;;;194.82;22.98;;;7.60;99.90;;;;;;5027019;28;20036;-74
2022/09/28 06:26:34;;;;;;;42.63;19.25;;;7.60;99.90;;;;;;5029758;28;20170;-76
2022/09/28 06:29:02;;;;;;;94.32;21.00;;;7.50;99.90;;;;;;5027904;28;20468;-75
2022/09/28 06:31:28;;;;;;;75.18;20.77;;;7.60;99.90;;;;;;5029474;28;20080;-73
2022/09/28 06:33:54;;;;;;;209.57;21.73;;;7.60;99.90;;;;;;5015628;28;20468;-74
2022/09/28 06:36:21;;;;;;;226.40;20.75;;;7.60;99.90;;;;;;5024537;28;20060;-74
2022/09/28 06:38:46;;;;;;;371.67;27.15;;;7.60;99.90;;;;;;5031993;28;20056;-74
2022/09/28 06:41:13;;;;;;;167.68;20.35;;;7.60;99.90;;;;;;5005924;28;20048;-74
2022/09/28 06:43:39;;;;;;;91.30;18.65;;;7.60;99.90;;;;;;5032336;28;20070;-74
2022/09/28 06:46:06;;;;;;;132.13;19.10;;;7.60;99.90;;;;;;4974875;28;20140;-74
2022/09/28 06:48:34;;;;;;;126.93;20.60;;;7.60;99.90;;;;;;4957050;28;20045;-73
2022/09/28 06:51:00;;;;;;;96.03;18.80;;;7.80;99.90;;;;;;5007731;28;20477;-75
2022/09/28 06:53:30;;;;;;;109.80;21.05;;;7.70;99.90;;;;;;5035122;28;20055;-74
2022/09/28 06:55:56;;;;;;;74.38;17.38;;;7.70;99.90;;;;;;5054825;28;20040;-73
2022/09/28 06:58:22;;;;;;;72.80;18.95;;;7.80;99.90;;;;;;5019085;28;20047;-73
2022/09/28 07:00:50;;;;;;;69.93;17.05;;;7.80;99.90;;;;;;5019030;28;20045;-74
2022/09/28 07:03:21;;;;;;;57.35;16.48;;;7.90;99.90;;;;;;5019698;28;20155;-74
2022/09/28 07:05:52;;;;;;;34.17;16.58;;;8.00;99.90;;;;;;5036573;28;20080;-74
2022/09/28 07:08:24;;;;;;;60.53;17.20;;;8.00;99.90;;;;;;5040575;28;20041;-74
2022/09/28 07:10:57;;;;;;;73.43;17.13;;;8.00;99.90;;;;;;5036818;28;20051;-75
2022/09/28 07:13:26;;;;;;;54.85;17.70;;;8.10;99.90;;;;;;5037062;28;20116;-73
2022/09/28 07:15:56;;;;;;;21.85;15.65;;;8.30;99.90;;;;;;5035894;28;20045;-73
2022/09/28 07:18:23;;;;;;;58.25;16.25;;;8.10;99.90;;;;;;5037418;28;20040;-73
2022/09/28 07:20:49;;;;;;;44.47;17.80;;;8.20;99.90;;;;;;5020217;28;20040;-73
2022/09/28 07:23:15;;;;;;;50.75;16.38;;;8.30;99.90;;;;;;5037755;28;20055;-74
2022/09/28 07:25:46;;;;;;;43.65;15.98;;;8.30;99.90;;;;;;5037302;28;20041;-73
2022/09/28 07:28:12;;;;;;;34.20;15.90;;;8.20;99.90;;;;;;5033644;28;20048;-74
2022/09/28 07:30:38;;;;;;;47.35;16.63;;;8.30;99.90;;;;;;5036989;28;20098;-74
2022/09/28 07:33:06;;;;;;;56.05;15.95;;;8.30;99.90;;;;;;5050133;28;20056;-73
2022/09/28 07:35:33;;;;;;;94.68;16.83;;;8.30;99.90;;;;;;5033072;28;20048;-74
2022/09/28 07:38:00;;;;;;;48.25;16.35;;;8.40;99.90;;;;;;5035091;28;20045;-73
2022/09/28 07:43:12;;;;;;;34.40;17.77;;;8.40;99.90;;;;;;5036372;28;20460;-73
2022/09/28 07:45:38;;;;;;;39.83;16.63;;;8.40;99.90;;;;;;5033038;28;20147;-73
2022/09/28 07:48:04;;;;;;;34.88;15.30;;;8.50;99.90;;;;;;5033848;28;20136;-74
2022/09/28 07:50:30;;;;;;;34.53;16.20;;;8.60;99.90;;;;;;5040522;28;20045;-73
2022/09/28 07:52:56;;;;;;;44.63;15.93;;;8.70;99.90;;;;;;5042393;28;20045;-75
2022/09/28 07:55:23;;;;;;;58.63;15.82;;;8.80;99.90;;;;;;5016160;28;20361;-74
2022/09/28 07:57:59;;;;;;;55.38;16.05;;;8.80;99.90;;;;;;5040723;28;20041;-74
2022/09/28 08:00:31;;;;;;;52.25;16.38;;;8.80;99.90;;;;;;5030417;28;20080;-74
2022/09/28 08:03:01;;;;;;;25.38;17.50;;;8.90;99.90;;;;;;5036756;28;20052;-74
2022/09/28 08:05:31;;;;;;;55.50;20.50;;;8.90;99.90;;;;;;5033067;28;20045;-73
2022/09/28 08:07:59;;;;;;;34.28;18.98;;;9.00;99.90;;;;;;5026467;28;20147;-73
2022/09/28 08:10:25;;;;;;;45.22;22.92;;;9.10;99.90;;;;;;5026700;28;20481;-73
2022/09/28 08:12:55;;;;;;;52.00;22.40;;;9.20;99.90;;;;;;5024051;28;20040;-72
2022/09/28 08:15:21;;;;;;;49.47;24.60;;;9.20;99.90;;;;;;5032903;28;20391;-73
2022/09/28 08:17:47;;;;;;;74.32;25.35;;;9.30;99.90;;;;;;5017725;28;20041;-74
2022/09/28 08:23:06;;;;;;;39.17;22.70;;;9.40;99.90;;;;;;5051893;28;20091;-73
2022/09/28 08:25:32;;;;;;;33.03;20.88;;;9.60;99.90;;;;;;5018832;28;20044;-72
2022/09/28 08:27:58;;;;;;;25.23;18.75;;;9.70;99.90;;;;;;5020288;28;20063;-73
2022/09/28 08:30:25;;;;;;;24.50;17.55;;;9.90;99.90;;;;;;5018980;28;20143;-74
2022/09/28 08:32:51;;;;;;;22.25;16.40;;;10.00;99.90;;;;;;5032034;28;20470;-74
2022/09/28 08:35:16;;;;;;;21.73;15.80;;;10.00;99.90;;;;;;5027892;28;20147;-75
2022/09/28 08:37:42;;;;;;;22.85;15.57;;;10.20;99.90;;;;;;5053882;28;20102;-73
2022/09/28 08:40:17;;;;;;;19.55;15.45;;;10.20;99.90;;;;;;5036117;28;20140;-75
2022/09/28 08:42:44;;;;;;;22.58;16.02;;;10.20;99.90;;;;;;5036520;28;20048;-72
2022/09/28 08:45:16;;;;;;;19.60;14.23;;;10.30;99.90;;;;;;5012437;28;20183;-73
2022/09/28 08:51:00;;;;;;;16.48;12.63;;;10.30;99.90;;;;;;5034135;28;20052;-74
2022/09/28 08:53:44;;;;;;;15.90;12.75;;;10.40;99.90;;;;;;5036241;28;20049;-74
2022/09/28 08:56:30;;;;;;;17.75;12.93;;;10.50;99.90;;;;;;5035100;28;20079;-73
2022/09/28 08:59:01;;;;;;;22.52;14.07;;;10.60;99.90;;;;;;5033719;28;20052;-74
2022/09/28 09:01:32;;;;;;;19.27;12.77;;;10.70;99.90;;;;;;5034664;28;20067;-74
2022/09/28 09:03:58;;;;;;;17.23;12.68;;;10.70;99.90;;;;;;5036194;28;20110;-74
2022/09/28 09:06:42;;;;;;;22.05;14.95;;;10.70;99.90;;;;;;5032256;28;20414;-75
2022/09/28 09:09:20;;;;;;;17.05;13.13;;;10.70;99.90;;;;;;5018991;28;20049;-73
2022/09/28 09:12:07;;;;;;;16.42;12.45;;;10.70;99.90;;;;;;5015552;28;20044;-74
2022/09/28 09:15:08;;;;;;;16.33;11.20;;;10.80;99.90;;;;;;5033574;28;20476;-74
2022/09/28 09:17:57;;;;;;;13.82;10.38;;;10.70;99.90;;;;;;4993929;28;20041;-74
2022/09/28 09:20:48;;;;;;;16.70;11.52;;;10.80;99.90;;;;;;5035061;28;20045;-74
2022/09/28 09:23:51;;;;;;;15.88;11.27;;;10.90;99.90;;;;;;5019048;28;20037;-75
2022/09/28 09:26:26;;;;;;;15.07;11.13;;;11.10;99.90;;;;;;5034930;28;20037;-75
2022/09/28 09:29:59;;;;;;;13.55;9.73;;;11.20;99.90;;;;;;5035698;28;20037;-76
2022/09/28 09:32:40;;;;;;;14.30;10.23;;;11.40;99.90;;;;;;4980127;28;20100;-76
2022/09/28 09:35:30;;;;;;;13.40;9.80;;;11.70;99.90;;;;;;5034955;28;20469;-77
2022/09/28 09:38:26;;;;;;;12.65;9.73;;;11.80;99.90;;;;;;5035204;28;20084;-75
2022/09/28 09:41:40;;;;;;;13.57;9.77;;;11.90;99.90;;;;;;5031881;28;20048;-77
2022/09/28 09:44:56;;;;;;;14.98;9.63;;;12.20;99.90;;;;;;5013392;28;20492;-77
2022/09/28 09:47:34;;;;;;;11.60;7.97;;;12.50;99.90;;;;;;4971229;28;20386;-77
2022/09/28 09:50:24;;;;;;;9.70;7.70;;;12.80;99.90;;;;;;5025199;28;20057;-76
2022/09/28 09:53:05;;;;;;;9.93;7.18;;;12.90;99.90;;;;;;5031709;28;20377;-78
2022/09/28 09:55:49;;;;;;;9.63;7.07;;;12.70;99.90;;;;;;5034048;28;20125;-78
2022/09/28 09:58:25;;;;;;;10.80;7.70;;;12.60;99.90;;;;;;5034713;28;20472;-78
2022/09/28 10:00:53;;;;;;;9.93;7.68;;;12.40;99.90;;;;;;5030343;28;20037;-77
2022/09/28 10:03:23;;;;;;;10.82;7.53;;;12.30;99.90;;;;;;5030386;28;20044;-78
2022/09/28 10:06:00;;;;;;;11.10;8.23;;;12.20;99.90;;;;;;5050711;28;20045;-76
2022/09/28 10:08:29;;;;;;;10.20;8.10;;;12.20;99.90;;;;;;5031886;28;20040;-77
2022/09/28 10:11:08;;;;;;;10.90;8.38;;;12.20;99.90;;;;;;5033988;28;20052;-78
2022/09/28 10:13:34;;;;;;;11.73;9.10;;;12.20;99.90;;;;;;5056860;28;20113;-77
2022/09/28 10:16:00;;;;;;;10.30;8.15;;;12.40;99.90;;;;;;5033400;28;20071;-77
2022/09/28 10:18:26;;;;;;;10.70;7.90;;;12.50;99.90;;;;;;5034227;28;20059;-78
2022/09/28 10:20:52;;;;;;;10.02;7.65;;;12.50;99.90;;;;;;5033670;28;20469;-78
2022/09/28 10:23:24;;;;;;;9.55;7.32;;;12.60;99.90;;;;;;5034952;28;20041;-77
2022/09/28 10:26:01;;;;;;;8.98;6.45;;;12.60;99.90;;;;;;5032047;28;20413;-75
2022/09/28 10:28:50;;;;;;;9.02;6.60;;;12.70;99.90;;;;;;5031246;28;20072;-77
2022/09/28 10:31:40;;;;;;;8.57;6.25;;;12.90;99.90;;;;;;5004433;28;20091;-76
2022/09/28 10:34:07;;;;;;;8.65;6.35;;;13.30;99.90;;;;;;5033774;28;20041;-77
2022/09/28 10:36:45;;;;;;;8.98;6.88;;;13.50;99.90;;;;;;5024450;28;20377;-77
2022/09/28 10:39:30;;;;;;;8.82;6.43;;;13.50;99.90;;;;;;5041783;28;20132;-76
2022/09/28 10:41:58;;;;;;;9.18;6.60;;;13.50;99.90;;;;;;5013949;28;20045;-77
2022/09/28 10:44:25;;;;;;;9.35;6.38;;;13.40;99.90;;;;;;5028951;28;20048;-78
2022/09/28 10:46:58;;;;;;;9.65;6.95;;;13.30;99.90;;;;;;5031142;28;20456;-77
2022/09/28 10:49:24;;;;;;;;;;;13.20;99.90;;;;;;5030778;28;20049;-78
2022/09/28 10:51:55;;;;;;;8.20;6.03;;;13.10;99.90;;;;;;5022461;28;20285;-76
2022/09/28 10:54:29;;;;;;;9.55;6.78;;;13.20;99.90;;;;;;5014849;28;20049;-77
2022/09/28 10:56:56;;;;;;;10.48;6.65;;;13.40;99.90;;;;;;5022655;28;20037;-75
2022/09/28 10:59:28;;;;;;;8.40;5.90;;;13.70;99.90;;;;;;5035247;28;20053;-76
2022/09/28 11:02:18;;;;;;;10.07;6.30;;;14.00;99.90;;;;;;5037078;28;20048;-76
2022/09/28 11:04:54;;;;;;;9.52;6.43;;;14.10;99.90;;;;;;5022871;28;20056;-77
2022/09/28 11:07:29;;;;;;;9.30;6.70;;;14.00;99.90;;;;;;5031276;28;20380;-76
2022/09/28 11:09:57;;;;;;;9.13;6.47;;;13.90;99.90;;;;;;5030483;28;20080;-77
2022/09/28 11:12:26;;;;;;;9.82;5.90;;;13.80;99.90;;;;;;5029104;28;20099;-74
2022/09/28 11:15:05;;;;;;;9.15;6.32;;;13.90;99.90;;;;;;5029692;28;20171;-77
2022/09/28 11:17:38;;;;;;;9.15;5.57;;;14.00;99.90;;;;;;5028007;28;20053;-73
2022/09/28 11:20:25;;;;;;;8.98;5.50;;;13.90;99.90;;;;;;5035469;28;20040;-74
2022/09/28 11:22:52;;;;;;;10.00;5.85;;;13.90;99.90;;;;;;5037720;28;20543;-75
2022/09/28 11:25:20;;;;;;;8.63;5.53;;;13.90;99.90;;;;;;5016201;28;20083;-76
2022/09/28 11:27:52;;;;;;;8.88;5.75;;;13.80;99.90;;;;;;5050540;28;20107;-75
2022/09/28 11:30:32;;;;;;;8.98;5.55;;;13.90;99.90;;;;;;5034801;28;20072;-75
2022/09/28 11:33:11;;;;;;;9.23;6.13;;;14.00;99.90;;;;;;5015744;28;20517;-74
2022/09/28 11:35:49;;;;;;;8.57;6.25;;;14.30;99.90;;;;;;5031778;28;20477;-75
2022/09/28 11:38:20;;;;;;;8.43;5.97;;;14.30;99.90;;;;;;5050318;28;20045;-74
2022/09/28 11:41:13;;;;;;;9.27;6.38;;;14.20;99.90;;;;;;5035253;28;20480;-73
2022/09/28 11:44:14;;;;;;;8.98;6.00;;;14.10;99.90;;;;;;5053385;28;20045;-74
2022/09/28 11:46:46;;;;;;;8.85;5.60;;;14.10;99.90;;;;;;5027823;28;20060;-74
2022/09/28 11:49:34;;;;;;;9.48;5.82;;;14.10;99.90;;;;;;5052749;28;20047;-74
2022/09/28 11:52:26;;;;;;;9.00;6.18;;;14.30;99.90;;;;;;5034366;28;20053;-74
2022/09/28 11:55:23;;;;;;;8.70;6.07;;;14.40;99.90;;;;;;5033330;28;20041;-74
2022/09/28 11:58:12;;;;;;;8.15;5.78;;;14.70;99.90;;;;;;5015170;28;20464;-74
2022/09/28 12:00:51;;;;;;;7.60;5.18;;;14.90;99.90;;;;;;5032832;28;20073;-74
2022/09/28 12:03:49;;;;;;;7.95;5.40;;;15.10;99.90;;;;;;5019041;28;20055;-74
2022/09/28 12:06:21;;;;;;;7.63;4.72;;;15.10;99.90;;;;;;5035892;28;20182;-74
2022/09/28 12:08:59;;;;;;;8.48;4.82;;;15.20;99.90;;;;;;5037160;28;20091;-72
2022/09/28 12:11:34;;;;;;;7.75;4.85;;;15.30;99.90;;;;;;5033127;28;20428;-74
2022/09/28 12:14:04;;;;;;;7.93;5.05;;;15.40;99.90;;;;;;5033747;28;20492;-74
2022/09/28 12:16:45;;;;;;;7.88;4.80;;;15.50;99.90;;;;;;5014059;28;20055;-75
2022/09/28 12:19:28;;;;;;;7.93;5.53;;;15.60;99.90;;;;;;5033603;28;20489;-74
2022/09/28 12:22:09;;;;;;;6.93;4.80;;;15.70;99.90;;;;;;5028883;28;20124;-74
2022/09/28 12:24:35;;;;;;;7.50;5.30;;;15.60;99.90;;;;;;5031209;28;20048;-73
2022/09/28 12:27:42;;;;;;;7.45;4.18;;;15.60;99.90;;;;;;5016277;28;20042;-75
2022/09/28 12:30:13;;;;;;;6.95;3.92;;;15.50;99.90;;;;;;4973008;28;20050;-74
2022/09/28 12:32:47;;;;;;;5.38;3.55;;;15.40;99.90;;;;;;5018547;28;20049;-73
2022/09/28 12:35:18;;;;;;;6.38;3.97;;;15.40;99.90;;;;;;5033015;28;20091;-73
2022/09/28 12:38:07;;;;;;;5.97;4.00;;;15.30;99.90;;;;;;5032578;28;20060;-76
2022/09/28 12:40:36;;;;;;;5.63;3.60;;;15.10;99.90;;;;;;5032794;28;20037;-76
2022/09/28 12:43:16;;;;;;;7.82;3.78;;;15.20;99.90;;;;;;5033150;28;20050;-75
2022/09/28 12:46:06;;;;;;;5.38;3.13;;;15.30;99.90;;;;;;5032013;28;20470;-74
2022/09/28 12:48:41;;;;;;;6.30;2.78;;;15.60;99.90;;;;;;5032672;28;20128;-74
2022/09/28 12:51:23;;;;;;;5.00;2.65;;;15.80;99.90;;;;;;5031985;28;20481;-75
2022/09/28 12:54:20;;;;;;;5.78;2.75;;;15.80;99.90;;;;;;5032763;28;20412;-75
2022/09/28 12:57:07;;;;;;;5.75;2.63;;;15.70;99.90;;;;;;5002791;28;20495;-74
2022/09/28 13:00:06;;;;;;;5.32;2.40;;;15.80;99.90;;;;;;5032356;28;20042;-74
2022/09/28 13:02:41;;;;;;;4.40;1.60;;;16.00;99.90;;;;;;5030648;28;20049;-75
2022/09/28 13:05:33;;;;;;;3.70;1.55;;;16.20;99.90;;;;;;5015997;28;20051;-75
2022/09/28 13:08:22;;;;;;;3.95;1.40;;;16.40;99.90;;;;;;5032439;28;20384;-75
2022/09/28 13:11:03;;;;;;;4.00;1.50;;;16.50;99.90;;;;;;5032196;28;20041;-76
2022/09/28 13:14:00;;;;;;;5.75;1.50;;;16.60;99.90;;;;;;5012789;28;20084;-75
2022/09/28 13:16:46;;;;;;;4.30;1.60;;;16.70;99.90;;;;;;4999797;28;20122;-75
2022/09/28 13:19:38;;;;;;;4.90;1.60;;;16.80;99.90;;;;;;5015691;28;20038;-75
2022/09/28 13:22:34;;;;;;;3.40;1.60;;;16.60;99.90;;;;;;5015415;28;20053;-76
2022/09/28 13:25:05;;;;;;;4.35;1.70;;;16.40;99.90;;;;;;5012217;28;20056;-75